Latest Weather Observations for Spring Bay

IDT60801

Issued at 10:31 pm EDT Wednesday 4 March 2015 (issued every 30 minutes, with the page automatically refreshed every 10 minutes)

About weather observations | Map of weather stations | Latest weather observations for TAS | Other Formats
Station Details ID: 092133 Name: SPRING BAY NTC AWS Lat: -42.55 Lon: 147.93 Height: 0.0 m
Data from the previous 72 hours. | See also: Recent months for locations in Tasmania
Date/Time
EDT
Temp
°C
App
Temp
°C
Dew
Point
Rel
Hum
%
Delta-T
°C
Wind Press
QNH
hPa
Press
MSL
hPa
Rain
since 9 am
mm
Dir
 
Spd
km/h
Gust
km/h
Spd
kts
Gust
kts
04/10:30pm 16.4 - - - - - - - - - 996.8 996.8 -
04/10:00pm 17.3 - - - - - - - - - 997.3 997.3 -
04/09:30pm 17.9 - - - - - - - - - 997.3 997.3 -
04/09:00pm 18.0 - - - - - - - - - 997.1 997.1 -
04/08:30pm 19.5 - - - - - - - - - 997.6 997.6 -
04/08:00pm 19.4 - - - - - - - - - 997.3 997.3 -
04/07:30pm 19.9 - - - - - - - - - 997.1 997.1 -
04/07:00pm 20.2 - - - - - - - - - 997.7 997.7 -
04/06:30pm 20.6 - - - - - - - - - 997.8 997.8 -
04/06:00pm 20.6 - - - - - - - - - 998.2 998.2 -
04/05:30pm 20.7 - - - - - - - - - 998.2 998.2 -
04/05:00pm 21.3 - - - - - - - - - 998.2 998.2 -
04/04:30pm 21.1 - - - - - - - - - 998.4 998.4 -
04/04:00pm 20.8 - - - - - - - - - 998.8 998.8 -
04/03:30pm 21.1 - - - - - - - - - 999.3 999.3 -
04/03:00pm 22.0 - - - - - - - - - 999.5 999.5 -
04/02:30pm 21.8 - - - - - - - - - 1000.0 1000.0 -
04/02:00pm 21.5 - - - - - - - - - 1000.0 1000.0 -
04/01:30pm 21.5 - - - - - - - - - 1000.4 1000.4 -
04/01:00pm 21.1 - - - - - - - - - 1000.8 1000.8 -
04/12:30pm 20.6 - - - - - - - - - 1001.7 1001.7 -
04/12:00pm 20.4 - - - - - - - - - 1002.2 1002.2 -
04/11:30am 20.1 - - - - - - - - - 1002.6 1002.6 -
04/11:00am 18.9 - - - - - - - - - 1002.9 1002.9 -
04/10:30am 17.7 - - - - - - - - - 1003.1 1003.1 -
04/10:00am 17.0 - - - - - - - - - 1003.5 1003.5 -
04/09:30am 16.3 - - - - - - - - - 1003.3 1003.3 -
04/09:00am 15.3 - - - - - - - - - 1004.3 1004.3 -
04/08:30am 14.9 - - - - - - - - - 1004.6 1004.6 -
04/08:00am 14.5 - - - - - - - - - 1004.3 1004.3 -
04/07:30am 14.1 - - - - - - - - - 1004.4 1004.4 -
04/07:00am 13.6 - - - - - - - - - 1004.7 1004.7 -
04/06:30am 12.9 - - - - - - - - - 1004.7 1004.7 -
04/06:00am 13.2 - - - - - - - - - 1004.7 1004.7 -
04/05:30am 13.4 - - - - - - - - - 1005.4 1005.4 -
04/05:00am 13.4 - - - - - - - - - 1005.1 1005.1 -
04/04:30am 13.7 - - - - - - - - - 1005.4 1005.4 -
04/04:00am 13.1 - - - - - - - - - 1005.6 1005.6 -
04/03:30am 12.7 - - - - - - - - - 1005.9 1005.9 -
04/03:00am 12.9 - - - - - - - - - 1006.6 1006.6 -
04/02:30am 14.6 - - - - - - - - - 1007.1 1007.1 -
04/02:00am 14.3 - - - - - - - - - 1007.7 1007.7 -
04/01:30am 15.0 - - - - - - - - - 1008.3 1008.3 -
04/01:00am 14.7 - - - - - - - - - 1008.8 1008.8 -
04/12:30am 14.3 - - - - - - - - - 1009.3 1009.3 -
04/12:00am 14.8 - - - - - - - - - 1009.6 1009.6 -
 
Date/Time
EDT
Temp
°C
App
Temp
°C
Dew
Point
Rel
Hum
%
Delta-T
°C
Wind Press
QNH
hPa
Press
MSL
hPa
Rain
since 9 am
mm
Dir
 
Spd
km/h
Gust
km/h
Spd
kts
Gust
kts
03/11:30pm 15.2 - - - - - - - - - 1009.9 1009.9 -
03/11:00pm 15.6 - - - - - - - - - 1009.9 1009.9 -
03/10:30pm 15.6 - - - - - - - - - 1010.0 1010.0 -
03/10:00pm 15.9 - - - - - - - - - 1010.0 1010.0 -
03/09:30pm 16.4 - - - - - - - - - 1010.0 1010.0 -
03/09:00pm 16.5 - - - - - - - - - 1010.1 1010.1 -
03/08:30pm 16.4 - - - - - - - - - 1010.1 1010.1 -
03/08:00pm 16.6 - - - - - - - - - 1010.2 1010.2 -
03/07:30pm 16.6 - - - - - - - - - 1010.3 1010.3 -
03/07:00pm 16.6 - - - - - - - - - 1010.5 1010.5 -
03/06:30pm 16.7 - - - - - - - - - 1010.7 1010.7 -
03/06:00pm 16.6 - - - - - - - - - 1010.9 1010.9 -
03/05:30pm 16.7 - - - - - - - - - 1011.2 1011.2 -
03/05:00pm 16.4 - - - - - - - - - 1011.4 1011.4 -
03/04:30pm 16.6 - - - - - - - - - 1011.5 1011.5 -
03/04:00pm 16.9 - - - - - - - - - 1011.9 1011.9 -
03/03:30pm 16.9 - - - - - - - - - 1011.9 1011.9 -
03/03:00pm 16.2 - - - - - - - - - 1012.3 1012.3 -
03/02:30pm 16.7 - - - - - - - - - 1012.7 1012.7 -
03/02:00pm 16.8 - - - - - - - - - 1012.9 1012.9 -
03/01:30pm 16.8 - - - - - - - - - 1013.0 1013.0 -
03/01:00pm 16.9 - - - - - - - - - 1013.3 1013.3 -
03/12:30pm 16.5 - - - - - - - - - 1013.8 1013.8 -
03/12:00pm 16.5 - - - - - - - - - 1014.1 1014.1 -
03/11:30am 15.8 - - - - - - - - - 1014.3 1014.3 -
03/11:00am 15.7 - - - - - - - - - 1014.5 1014.5 -
03/10:30am 15.1 - - - - - - - - - 1014.5 1014.5 -
03/10:00am 15.1 - - - - - - - - - 1014.5 1014.5 -
03/09:30am 15.9 - - - - - - - - - 1014.5 1014.5 -
03/09:00am 13.6 - - - - - - - - - 1014.5 1014.5 -
03/08:30am 13.1 - - - - - - - - - 1014.1 1014.1 -
03/08:00am 12.7 - - - - - - - - - 1014.0 1014.0 -
03/07:30am 12.6 - - - - - - - - - 1013.6 1013.6 -
03/07:00am 11.8 - - - - - - - - - 1013.0 1013.0 -
03/06:30am 12.1 - - - - - - - - - 1012.5 1012.5 -
03/06:00am 11.4 - - - - - - - - - 1011.8 1011.8 -
03/05:30am 11.6 - - - - - - - - - 1011.8 1011.8 -
03/05:00am 11.6 - - - - - - - - - 1011.8 1011.8 -
03/04:30am 11.8 - - - - - - - - - 1011.7 1011.7 -
03/04:00am 12.4 - - - - - - - - - 1011.6 1011.6 -
03/03:30am 13.0 - - - - - - - - - 1011.5 1011.5 -
03/03:00am 13.4 - - - - - - - - - 1011.5 1011.5 -
03/02:30am 13.4 - - - - - - - - - 1011.9 1011.9 -
03/02:00am 14.0 - - - - - - - - - 1012.2 1012.2 -
03/01:30am 14.8 - - - - - - - - - 1012.5 1012.5 -
03/01:00am 15.2 - - - - - - - - - 1012.7 1012.7 -
03/12:30am 15.1 - - - - - - - - - 1013.1 1013.1 -
03/12:00am 15.3 - - - - - - - - - 1012.9 1012.9 -
 
Date/Time
EDT
Temp
°C
App
Temp
°C
Dew
Point
Rel
Hum
%
Delta-T
°C
Wind Press
QNH
hPa
Press
MSL
hPa
Rain
since 9 am
mm
Dir
 
Spd
km/h
Gust
km/h
Spd
kts
Gust
kts
02/11:30pm 15.3 - - - - - - - - - 1013.0 1013.0 -
02/11:00pm 15.4 - - - - - - - - - 1012.9 1012.9 -
02/10:30pm 15.7 - - - - - - - - - 1012.7 1012.7 -
02/10:00pm 16.2 - - - - - - - - - 1012.2 1012.2 -
02/09:30pm 16.7 - - - - - - - - - 1011.7 1011.7 -
02/09:00pm 17.3 - - - - - - - - - 1011.3 1011.3 -
02/08:30pm 17.9 - - - - - - - - - 1010.9 1010.9 -
02/08:00pm 18.4 - - - - - - - - - 1010.7 1010.7 -
02/07:30pm 18.7 - - - - - - - - - 1010.7 1010.7 -
02/07:00pm 19.2 - - - - - - - - - 1010.4 1010.4 -
02/06:30pm 19.6 - - - - - - - - - 1010.4 1010.4 -
02/06:00pm 19.8 - - - - - - - - - 1010.7 1010.7 -
02/05:30pm 19.4 - - - - - - - - - 1010.8 1010.8 -
02/05:00pm 19.0 - - - - - - - - - 1011.2 1011.2 -
02/04:30pm 18.4 - - - - - - - - - 1011.4 1011.4 -
02/04:00pm 18.2 - - - - - - - - - 1011.9 1011.9 -
02/03:30pm 18.0 - - - - - - - - - 1012.3 1012.3 -
02/03:00pm 18.1 - - - - - - - - - 1012.8 1012.8 -
02/02:30pm 18.4 - - - - - - - - - 1013.5 1013.5 -
02/02:00pm 18.0 - - - - - - - - - 1014.0 1014.0 -
02/01:30pm 17.3 - - - - - - - - - 1014.5 1014.5 -
02/01:00pm 17.3 - - - - - - - - - 1015.2 1015.2 -
02/12:30pm 16.3 - - - - - - - - - 1016.4 1016.4 -
02/12:00pm 15.4 - - - - - - - - - 1017.2 1017.2 -
02/11:30am 15.1 - - - - - - - - - 1017.7 1017.7 -
02/11:00am 14.5 - - - - - - - - - 1018.1 1018.1 -
02/10:30am 13.4 - - - - - - - - - 1018.4 1018.4 -
02/10:00am 13.1 - - - - - - - - - 1018.6 1018.6 -

Other Formats:

Comma delimited format used in spreadsheet applications
http://www.bom.gov.au/fwo/IDT60801/IDT60801.95987.axf

JavaScript Object Notation format (JSON) in row-major order
http://www.bom.gov.au/fwo/IDT60801/IDT60801.95987.json